createdAt,value
2018-09-13T00:01:27.087Z,99.90
2018-09-13T00:03:57.545Z,99.90
2018-09-13T00:06:27.993Z,99.90
2018-09-13T00:08:58.631Z,99.90
2018-09-13T00:11:29.110Z,99.90
2018-09-13T00:13:59.397Z,99.90
2018-09-13T00:16:29.857Z,99.90
2018-09-13T00:19:00.495Z,99.90
2018-09-13T00:21:30.796Z,99.90
2018-09-13T00:24:01.113Z,99.90
2018-09-13T00:26:31.534Z,99.90
2018-09-13T00:29:01.886Z,99.90
2018-09-13T00:31:32.277Z,99.90
2018-09-13T00:34:02.666Z,99.90
2018-09-13T00:36:33.032Z,99.90
2018-09-13T00:39:03.653Z,99.90
2018-09-13T00:41:34.207Z,99.90
2018-09-13T00:44:04.661Z,99.90
2018-09-13T00:46:35.432Z,99.90
2018-09-13T00:49:06.492Z,99.90
2018-09-13T00:51:36.927Z,99.90
2018-09-13T00:54:07.651Z,99.90
2018-09-13T00:56:38.196Z,99.90
2018-09-13T00:59:08.556Z,99.90
2018-09-13T01:01:38.675Z,99.90
2018-09-13T01:04:08.809Z,99.90
2018-09-13T01:06:45.427Z,99.90
2018-09-13T01:09:15.691Z,99.90
2018-09-13T01:11:45.995Z,99.90
2018-09-13T01:14:16.332Z,99.90
2018-09-13T01:16:46.552Z,99.90
2018-09-13T01:19:16.982Z,99.90
2018-09-13T01:21:47.259Z,99.90
2018-09-13T01:24:17.552Z,99.90
2018-09-13T01:26:47.955Z,99.90
2018-09-13T01:29:18.597Z,99.90
2018-09-13T01:31:48.797Z,99.90
2018-09-13T01:34:19.366Z,99.90
2018-09-13T01:36:49.887Z,99.90
2018-09-13T01:39:20.296Z,99.90
2018-09-13T01:41:50.802Z,99.90
2018-09-13T01:44:21.539Z,99.90
2018-09-13T01:46:52.192Z,99.90
2018-09-13T01:49:22.731Z,99.90
2018-09-13T01:51:53.060Z,99.90
2018-09-13T01:54:23.443Z,99.90
2018-09-13T01:56:53.892Z,99.90
2018-09-13T01:59:24.338Z,99.90
2018-09-13T02:01:54.622Z,99.90
2018-09-13T02:04:24.982Z,99.90
2018-09-13T02:06:55.385Z,99.90
2018-09-13T02:09:25.744Z,99.90
2018-09-13T02:11:56.240Z,99.90
2018-09-13T02:14:26.665Z,99.90
2018-09-13T02:16:56.966Z,99.90
2018-09-13T02:19:27.465Z,99.90
2018-09-13T02:21:57.723Z,99.90
2018-09-13T02:24:28.192Z,99.90
2018-09-13T02:26:58.555Z,99.90
2018-09-13T02:29:28.981Z,99.90
2018-09-13T02:31:59.555Z,99.90
2018-09-13T02:34:30.951Z,99.90
2018-09-13T02:37:01.477Z,99.90
2018-09-13T02:39:32.000Z,99.90
2018-09-13T02:42:02.655Z,99.90
2018-09-13T02:44:33.150Z,99.90
2018-09-13T02:47:03.762Z,99.90
2018-09-13T02:49:34.189Z,99.90
2018-09-13T02:52:04.504Z,99.90
2018-09-13T02:54:35.104Z,99.90
2018-09-13T02:57:05.403Z,99.90
2018-09-13T02:59:35.865Z,99.90
2018-09-13T03:02:06.222Z,99.90
2018-09-13T03:04:36.414Z,99.90
2018-09-13T03:07:06.950Z,99.90
2018-09-13T03:09:37.588Z,99.90
2018-09-13T03:12:07.913Z,99.90
2018-09-13T03:14:38.367Z,99.90
2018-09-13T03:17:09.097Z,99.90
2018-09-13T03:19:39.540Z,99.90
2018-09-13T03:22:10.135Z,99.90
2018-09-13T03:24:40.702Z,99.90
2018-09-13T03:27:11.028Z,99.90
2018-09-13T03:29:41.621Z,99.90
2018-09-13T03:32:12.187Z,99.90
2018-09-13T03:34:42.705Z,99.90
2018-09-13T03:37:12.994Z,99.90
2018-09-13T03:39:43.494Z,99.90
2018-09-13T03:42:13.876Z,99.90
2018-09-13T03:44:44.522Z,99.90
2018-09-13T03:47:14.767Z,99.90
2018-09-13T03:49:45.171Z,99.90
2018-09-13T03:52:15.691Z,99.90
2018-09-13T03:54:46.232Z,99.90
2018-09-13T03:57:16.629Z,99.90
2018-09-13T03:59:53.847Z,99.90
2018-09-13T04:02:24.286Z,99.90
2018-09-13T04:04:54.754Z,99.90
2018-09-13T04:07:25.083Z,99.90
2018-09-13T04:09:55.554Z,99.90
2018-09-13T04:12:26.720Z,99.90
2018-09-13T04:14:57.268Z,99.90
2018-09-13T04:17:27.722Z,99.90
2018-09-13T04:19:58.306Z,99.90
2018-09-13T04:22:28.798Z,99.90
2018-09-13T04:24:59.107Z,99.90
2018-09-13T04:27:29.561Z,99.90
2018-09-13T04:30:00.188Z,99.90
2018-09-13T04:32:30.702Z,99.90
2018-09-13T04:35:01.397Z,99.90
2018-09-13T04:37:31.682Z,99.90
2018-09-13T04:40:02.269Z,99.90
2018-09-13T04:42:32.804Z,99.90
2018-09-13T04:45:03.291Z,99.90
2018-09-13T04:47:33.837Z,99.90
2018-09-13T04:50:04.528Z,99.90
2018-09-13T04:52:34.960Z,99.90
2018-09-13T04:55:05.393Z,99.90
2018-09-13T04:57:35.783Z,99.90
2018-09-13T05:00:06.171Z,99.90
2018-09-13T05:02:36.461Z,99.90
2018-09-13T05:05:07.150Z,99.90
2018-09-13T05:07:37.494Z,99.90
2018-09-13T05:10:08.151Z,99.90
2018-09-13T05:12:38.477Z,99.90
2018-09-13T05:15:09.062Z,99.90
2018-09-13T05:17:39.474Z,99.90
2018-09-13T05:20:10.069Z,99.90
2018-09-13T05:22:40.695Z,99.90
2018-09-13T05:25:11.638Z,99.90
2018-09-13T05:27:41.896Z,99.90
2018-09-13T05:30:12.693Z,99.90
2018-09-13T05:32:43.322Z,99.90
2018-09-13T05:35:13.704Z,99.90
2018-09-13T05:37:44.186Z,99.90
2018-09-13T05:40:14.646Z,99.90
2018-09-13T05:42:45.069Z,99.90
2018-09-13T05:45:15.570Z,99.90
2018-09-13T05:47:46.104Z,99.90
2018-09-13T05:50:16.413Z,99.90
2018-09-13T05:52:46.905Z,99.90
2018-09-13T05:55:17.272Z,99.90
2018-09-13T05:57:47.489Z,99.90
2018-09-13T06:00:17.826Z,99.90
2018-09-13T06:02:48.195Z,99.90
2018-09-13T06:05:18.678Z,99.90
2018-09-13T06:07:49.195Z,99.90
2018-09-13T06:10:19.455Z,99.90
2018-09-13T06:12:49.951Z,99.90
2018-09-13T06:15:20.274Z,99.90
2018-09-13T06:17:50.587Z,99.90
2018-09-13T06:20:20.981Z,99.90
2018-09-13T06:22:51.378Z,99.90
2018-09-13T06:25:21.788Z,99.90
2018-09-13T06:27:52.132Z,99.90
2018-09-13T06:30:22.633Z,99.90
2018-09-13T06:32:53.165Z,99.90
2018-09-13T06:35:23.702Z,99.90
2018-09-13T06:37:54.864Z,99.90
2018-09-13T06:40:25.217Z,99.90
2018-09-13T06:42:55.728Z,99.90
2018-09-13T06:45:26.688Z,99.90
2018-09-13T06:47:57.187Z,99.90
2018-09-13T06:50:27.595Z,99.90
2018-09-13T06:52:58.235Z,99.90
2018-09-13T06:55:28.648Z,99.90
2018-09-13T06:57:58.964Z,99.90
2018-09-13T07:00:29.476Z,99.90
2018-09-13T07:02:59.742Z,99.90
2018-09-13T07:05:30.182Z,99.90
2018-09-13T07:08:00.708Z,99.90
2018-09-13T07:10:31.265Z,99.90
2018-09-13T07:13:01.882Z,99.90
2018-09-13T07:15:32.117Z,99.90
2018-09-13T07:18:02.783Z,99.90
2018-09-13T07:20:33.096Z,99.90
2018-09-13T07:23:03.765Z,99.90
2018-09-13T07:25:34.065Z,99.90
2018-09-13T07:28:04.388Z,99.90
2018-09-13T07:30:35.060Z,99.90
2018-09-13T07:33:05.449Z,99.90
2018-09-13T07:35:36.041Z,99.90
2018-09-13T07:38:06.726Z,99.90
2018-09-13T07:40:37.382Z,99.90
2018-09-13T07:43:07.787Z,99.90
2018-09-13T07:45:38.203Z,99.90
2018-09-13T07:48:08.707Z,99.90
2018-09-13T07:50:39.217Z,99.90
2018-09-13T07:53:09.985Z,99.90
2018-09-13T07:55:40.553Z,99.90
2018-09-13T07:58:11.132Z,99.90
2018-09-13T08:00:41.616Z,99.90
2018-09-13T08:03:11.875Z,99.90
2018-09-13T08:05:42.457Z,99.90
2018-09-13T08:08:13.415Z,99.90
2018-09-13T08:10:43.735Z,99.90
2018-09-13T08:13:14.232Z,99.90
2018-09-13T08:15:44.673Z,99.90
2018-09-13T08:18:15.133Z,99.90
2018-09-13T08:20:45.661Z,99.90
2018-09-13T08:23:16.132Z,99.90
2018-09-13T08:25:46.676Z,99.90
2018-09-13T08:28:17.024Z,99.90
2018-09-13T08:30:47.586Z,99.90
2018-09-13T08:33:18.070Z,99.90
2018-09-13T08:35:48.519Z,99.90
2018-09-13T08:38:19.192Z,99.90
2018-09-13T08:40:49.984Z,99.90
2018-09-13T08:43:20.683Z,99.90
2018-09-13T08:45:51.067Z,99.90
2018-09-13T08:48:21.542Z,99.90
2018-09-13T08:50:52.074Z,99.90
2018-09-13T08:53:22.619Z,99.90
2018-09-13T08:55:53.385Z,99.90
2018-09-13T08:58:23.792Z,99.90
2018-09-13T09:00:54.309Z,99.90
2018-09-13T09:03:24.692Z,99.90
2018-09-13T09:05:55.262Z,99.90
2018-09-13T09:08:25.869Z,99.90
2018-09-13T09:10:56.456Z,99.90
2018-09-13T09:13:27.303Z,99.90
2018-09-13T09:15:57.823Z,99.90
2018-09-13T09:18:28.311Z,99.90
2018-09-13T09:20:59.041Z,99.90
2018-09-13T09:23:29.626Z,99.90
2018-09-13T09:26:00.522Z,99.90
2018-09-13T09:28:31.120Z,99.90
2018-09-13T09:31:01.462Z,99.90
2018-09-13T09:33:31.995Z,99.90
2018-09-13T09:36:02.547Z,99.90
2018-09-13T09:38:32.816Z,99.90
2018-09-13T09:41:03.113Z,99.90
2018-09-13T09:43:33.449Z,99.90
2018-09-13T09:46:04.008Z,99.90
2018-09-13T09:48:34.445Z,99.90
2018-09-13T09:51:04.869Z,99.90
2018-09-13T09:53:35.234Z,99.90
2018-09-13T09:56:05.803Z,99.90
2018-09-13T09:58:35.921Z,99.90
2018-09-13T10:01:11.603Z,99.70
2018-09-13T10:03:41.968Z,98.60
2018-09-13T10:06:12.324Z,97.40
2018-09-13T10:08:42.644Z,97.20
2018-09-13T10:11:12.987Z,97.30
2018-09-13T10:13:43.389Z,94.90
2018-09-13T10:16:18.869Z,93.90
2018-09-13T10:18:53.205Z,92.90
2018-09-13T10:21:28.599Z,92.00
2018-09-13T10:24:03.895Z,91.80
2018-09-13T10:26:45.347Z,90.40
2018-09-13T10:29:20.751Z,90.30
2018-09-13T10:31:56.083Z,88.40
2018-09-13T10:34:31.539Z,86.50
2018-09-13T10:37:06.979Z,86.90
2018-09-13T10:39:42.238Z,87.60
2018-09-13T10:42:17.528Z,85.20
2018-09-13T10:44:53.017Z,82.50
2018-09-13T10:47:28.568Z,81.40
2018-09-13T10:50:04.078Z,78.30
2018-09-13T10:52:40.575Z,77.90
2018-09-13T10:55:10.792Z,76.40
2018-09-13T10:57:42.613Z,74.70
2018-09-13T11:00:14.739Z,71.20
2018-09-13T11:02:45.180Z,70.60
2018-09-13T11:05:15.598Z,67.70
2018-09-13T11:07:45.948Z,68.50
2018-09-13T11:10:16.258Z,69.20
2018-09-13T11:12:49.643Z,67.10
2018-09-13T11:15:24.903Z,67.50
2018-09-13T11:17:56.235Z,66.60
2018-09-13T11:20:29.151Z,59.30
2018-09-13T11:23:00.555Z,59.80
2018-09-13T11:25:32.356Z,59.90
2018-09-13T11:28:04.294Z,60.80
2018-09-13T11:30:34.503Z,61.30
2018-09-13T11:33:04.990Z,60.40
2018-09-13T11:35:37.971Z,56.90
2018-09-13T11:38:10.545Z,56.80
2018-09-13T11:40:43.703Z,56.60
2018-09-13T11:43:15.340Z,56.90
2018-09-13T11:45:47.719Z,54.80
2018-09-13T11:48:20.428Z,52.60
2018-09-13T11:50:52.137Z,52.40
2018-09-13T11:53:23.280Z,53.40
2018-09-13T11:55:55.506Z,52.00
2018-09-13T11:58:26.994Z,50.80
2018-09-13T12:00:58.155Z,49.90
2018-09-13T12:03:28.717Z,47.40
2018-09-13T12:05:59.380Z,42.40
2018-09-13T12:08:30.443Z,37.80
2018-09-13T12:11:00.771Z,35.30
2018-09-13T12:13:31.205Z,34.50
2018-09-13T12:16:03.464Z,34.90
2018-09-13T12:18:34.296Z,35.50
2018-09-13T12:21:06.097Z,34.80
2018-09-13T12:23:36.473Z,35.90
2018-09-13T12:26:07.118Z,35.90
2018-09-13T12:28:38.912Z,34.50
2018-09-13T12:31:11.304Z,33.40
2018-09-13T12:33:41.776Z,34.00
2018-09-13T12:36:12.729Z,34.40
2018-09-13T12:38:43.895Z,36.00
2018-09-13T12:41:14.502Z,35.00
2018-09-13T12:43:45.553Z,36.20
2018-09-13T12:46:17.251Z,37.00
2018-09-13T12:48:48.438Z,38.20
2018-09-13T12:51:18.918Z,37.80
2018-09-13T12:53:50.312Z,39.10
2018-09-13T12:56:23.249Z,40.60
2018-09-13T12:58:54.135Z,41.60
2018-09-13T13:01:24.497Z,43.40
2018-09-13T13:03:56.367Z,43.40
2018-09-13T13:06:27.822Z,45.10
2018-09-13T13:08:58.885Z,45.90
2018-09-13T13:11:30.198Z,46.80
2018-09-13T13:14:01.856Z,47.70
2018-09-13T13:16:34.292Z,47.30
2018-09-13T13:19:05.937Z,47.60
2018-09-13T13:21:37.222Z,46.00
2018-09-13T13:24:07.731Z,47.50
2018-09-13T13:26:38.321Z,46.50
2018-09-13T13:29:08.858Z,47.20
2018-09-13T13:31:39.173Z,48.20
2018-09-13T13:34:09.506Z,48.60
2018-09-13T13:36:39.629Z,49.20
2018-09-13T13:39:10.976Z,49.60
2018-09-13T13:41:40.951Z,50.90
2018-09-13T13:44:11.008Z,49.20
2018-09-13T13:46:41.434Z,48.10
2018-09-13T13:49:14.388Z,48.80
2018-09-13T13:51:44.468Z,48.80
2018-09-13T13:54:14.437Z,48.60
2018-09-13T13:56:44.444Z,48.10
2018-09-13T13:59:14.735Z,47.60
2018-09-13T14:01:45.128Z,49.00
2018-09-13T14:04:15.062Z,48.60
2018-09-13T14:06:45.000Z,47.40
2018-09-13T14:09:14.975Z,48.30
2018-09-13T14:11:44.957Z,47.90
2018-09-13T14:14:15.190Z,48.60
2018-09-13T14:16:45.231Z,48.40
2018-09-13T14:19:15.308Z,47.70
2018-09-13T14:21:45.362Z,47.40
2018-09-13T14:24:15.330Z,47.10
2018-09-13T14:26:45.810Z,45.50
2018-09-13T14:29:15.865Z,46.60
2018-09-13T14:31:45.957Z,45.70
2018-09-13T14:34:15.970Z,46.00
2018-09-13T14:36:45.947Z,45.40
2018-09-13T14:39:15.896Z,45.60
2018-09-13T14:41:45.922Z,45.00
2018-09-13T14:44:15.887Z,44.90
2018-09-13T14:46:45.960Z,44.90
2018-09-13T14:49:15.999Z,46.70
2018-09-13T14:51:46.112Z,48.50
2018-09-13T14:54:16.715Z,50.20
2018-09-13T14:56:46.718Z,51.90
2018-09-13T14:59:23.241Z,52.60
2018-09-13T15:01:53.253Z,53.10
2018-09-13T15:04:23.263Z,53.40
2018-09-13T15:06:53.362Z,52.90
2018-09-13T15:09:23.387Z,52.40
2018-09-13T15:11:53.367Z,52.80
2018-09-13T15:14:23.474Z,53.30
2018-09-13T15:16:53.500Z,53.30
2018-09-13T15:19:23.645Z,52.80
2018-09-13T15:21:53.667Z,53.80
2018-09-13T15:24:26.701Z,54.80
2018-09-13T15:26:56.700Z,55.60
2018-09-13T15:29:26.686Z,56.20
2018-09-13T15:31:56.787Z,57.10
2018-09-13T15:34:26.853Z,55.80
2018-09-13T15:36:56.916Z,55.20
2018-09-13T15:39:26.960Z,55.50
2018-09-13T15:41:56.930Z,54.70
2018-09-13T15:44:27.002Z,55.00
2018-09-13T15:46:57.093Z,54.50
2018-09-13T15:49:27.983Z,54.10
2018-09-13T15:51:58.145Z,54.60
2018-09-13T15:54:34.685Z,54.60
2018-09-13T15:57:04.695Z,55.00
2018-09-13T15:59:34.761Z,55.30
2018-09-13T16:02:04.817Z,55.30
2018-09-13T16:04:35.052Z,55.00
2018-09-13T16:07:05.043Z,57.00
2018-09-13T16:09:35.117Z,58.70
2018-09-13T16:12:05.099Z,60.30
2018-09-13T16:14:35.171Z,62.20
2018-09-13T16:17:05.233Z,64.40
2018-09-13T16:19:35.264Z,64.70
2018-09-13T16:22:05.273Z,66.10
2018-09-13T16:24:35.281Z,66.80
2018-09-13T16:27:05.340Z,67.30
2018-09-13T16:29:35.326Z,68.20
2018-09-13T16:32:05.280Z,69.00
2018-09-13T16:34:35.265Z,70.90
2018-09-13T16:37:11.815Z,72.20
2018-09-13T16:39:46.882Z,73.00
2018-09-13T16:42:22.181Z,74.20
2018-09-13T16:44:54.685Z,74.40
2018-09-13T16:47:30.567Z,76.00
2018-09-13T16:50:02.782Z,76.50
2018-09-13T16:52:33.055Z,77.90
2018-09-13T16:55:03.417Z,79.10
2018-09-13T16:57:33.959Z,80.90
2018-09-13T17:00:04.030Z,82.30
2018-09-13T17:02:34.408Z,84.30
2018-09-13T17:05:04.897Z,85.70
2018-09-13T17:07:37.733Z,87.20
2018-09-13T17:10:08.468Z,88.70
2018-09-13T17:12:38.967Z,90.40
2018-09-13T17:15:09.499Z,90.90
2018-09-13T17:17:46.386Z,91.90
2018-09-13T17:20:17.342Z,92.60
2018-09-13T17:22:47.984Z,93.00
2018-09-13T17:25:18.600Z,93.70
2018-09-13T17:27:49.143Z,94.60
2018-09-13T17:30:19.587Z,95.20
2018-09-13T17:32:50.179Z,96.10
2018-09-13T17:35:20.524Z,97.20
2018-09-13T17:37:51.136Z,98.30
2018-09-13T17:40:21.661Z,99.30
2018-09-13T17:42:52.372Z,99.90
2018-09-13T17:45:22.697Z,99.90
2018-09-13T17:47:53.280Z,99.90
2018-09-13T17:50:23.988Z,99.90
2018-09-13T17:52:54.552Z,99.90
2018-09-13T17:55:24.930Z,99.90
2018-09-13T17:57:55.397Z,99.90
2018-09-13T18:00:25.800Z,99.90
2018-09-13T18:02:56.244Z,99.90
2018-09-13T18:05:26.874Z,99.90
2018-09-13T18:07:57.496Z,99.90
2018-09-13T18:10:27.933Z,99.90
2018-09-13T18:12:58.639Z,99.90
2018-09-13T18:15:28.938Z,99.90
2018-09-13T18:17:59.427Z,99.90
2018-09-13T18:20:30.029Z,99.90
2018-09-13T18:23:00.357Z,99.90
2018-09-13T18:25:30.889Z,99.90
2018-09-13T18:28:01.233Z,99.90
2018-09-13T18:30:31.871Z,99.90
2018-09-13T18:33:03.409Z,99.90
2018-09-13T18:35:34.099Z,99.90
2018-09-13T18:38:13.885Z,99.90
2018-09-13T18:40:46.587Z,99.90
2018-09-13T18:43:26.261Z,99.90
2018-09-13T18:45:56.817Z,99.90
2018-09-13T18:48:27.651Z,99.90
2018-09-13T18:50:58.206Z,99.90
2018-09-13T18:53:29.232Z,99.90
2018-09-13T18:55:59.679Z,99.90
2018-09-13T18:58:30.113Z,99.90
2018-09-13T19:01:00.545Z,99.90
2018-09-13T19:03:30.913Z,99.90
2018-09-13T19:06:01.195Z,99.90
2018-09-13T19:08:32.130Z,99.90
2018-09-13T19:11:02.204Z,99.90
2018-09-13T19:13:32.221Z,99.90
2018-09-13T19:16:02.301Z,99.90
2018-09-13T19:18:32.328Z,99.90
2018-09-13T19:21:02.872Z,99.90
2018-09-13T19:23:32.896Z,99.90
2018-09-13T19:26:02.899Z,99.90
2018-09-13T19:28:32.994Z,99.90
2018-09-13T19:31:03.691Z,99.90
2018-09-13T19:33:33.752Z,99.90
2018-09-13T19:36:03.768Z,99.90
2018-09-13T19:38:33.906Z,99.90
2018-09-13T19:41:03.931Z,99.90
2018-09-13T19:43:34.137Z,99.90
2018-09-13T19:46:04.145Z,99.90
2018-09-13T19:48:34.313Z,99.90
2018-09-13T19:51:04.427Z,99.90
2018-09-13T19:53:34.345Z,99.90
2018-09-13T19:56:04.448Z,99.90
2018-09-13T19:58:34.915Z,99.90
2018-09-13T20:01:05.273Z,99.90
2018-09-13T20:03:35.721Z,99.90
2018-09-13T20:06:06.118Z,99.90
2018-09-13T20:08:36.604Z,99.90
2018-09-13T20:11:06.979Z,99.90
2018-09-13T20:13:37.557Z,99.90
2018-09-13T20:16:08.213Z,99.90
2018-09-13T20:18:39.847Z,99.90
2018-09-13T20:21:10.247Z,99.90
2018-09-13T20:23:40.751Z,99.90
2018-09-13T20:26:11.350Z,99.90
2018-09-13T20:28:41.675Z,99.90
2018-09-13T20:31:11.917Z,99.90
2018-09-13T20:33:42.350Z,99.90
2018-09-13T20:36:12.736Z,99.90
2018-09-13T20:38:43.243Z,99.90
2018-09-13T20:41:13.730Z,99.90
2018-09-13T20:43:44.136Z,99.90
2018-09-13T20:46:14.565Z,99.90
2018-09-13T20:48:45.393Z,99.90
2018-09-13T20:51:15.922Z,99.90
2018-09-13T20:53:46.775Z,99.90
2018-09-13T20:56:19.019Z,99.90
2018-09-13T20:58:50.455Z,99.90
2018-09-13T21:01:20.573Z,99.90
2018-09-13T21:03:50.576Z,99.90
2018-09-13T21:06:20.598Z,99.90
2018-09-13T21:08:50.652Z,99.90
2018-09-13T21:11:20.702Z,99.90
2018-09-13T21:13:50.782Z,99.90
2018-09-13T21:16:20.800Z,99.90
2018-09-13T21:18:50.806Z,99.90
2018-09-13T21:21:20.870Z,99.90
2018-09-13T21:23:50.986Z,99.90
2018-09-13T21:26:21.000Z,99.90
2018-09-13T21:28:51.029Z,99.90
2018-09-13T21:31:21.076Z,99.90
2018-09-13T21:33:51.131Z,99.90
2018-09-13T21:36:21.144Z,99.90
2018-09-13T21:38:51.172Z,99.90
2018-09-13T21:41:21.267Z,99.90
2018-09-13T21:43:51.696Z,99.90
2018-09-13T21:46:22.125Z,99.90
2018-09-13T21:48:52.157Z,99.90
2018-09-13T21:51:22.109Z,99.90
2018-09-13T21:53:52.096Z,99.90
2018-09-13T21:56:22.100Z,99.90
2018-09-13T21:58:52.169Z,99.90
2018-09-13T22:01:22.200Z,99.90
2018-09-13T22:03:52.319Z,99.90
2018-09-13T22:06:22.307Z,99.90
2018-09-13T22:08:52.334Z,99.90
2018-09-13T22:11:22.379Z,99.90
2018-09-13T22:13:52.368Z,99.90
2018-09-13T22:16:22.430Z,99.90
2018-09-13T22:18:52.482Z,99.90
2018-09-13T22:21:22.489Z,99.90
2018-09-13T22:23:52.585Z,99.90
2018-09-13T22:26:22.591Z,99.90
2018-09-13T22:28:52.582Z,99.90
2018-09-13T22:31:22.592Z,99.90
2018-09-13T22:33:52.719Z,99.90
2018-09-13T22:36:22.825Z,99.90
2018-09-13T22:38:52.849Z,99.90
2018-09-13T22:41:22.814Z,99.90
2018-09-13T22:43:59.620Z,99.90
2018-09-13T22:46:29.603Z,99.90
2018-09-13T22:48:59.686Z,99.90
2018-09-13T22:51:29.682Z,99.90
2018-09-13T22:53:59.688Z,99.90
2018-09-13T22:56:29.699Z,99.90
2018-09-13T22:58:59.763Z,99.90
2018-09-13T23:01:29.776Z,99.90
2018-09-13T23:03:59.807Z,99.90
2018-09-13T23:06:29.803Z,99.90
2018-09-13T23:08:59.987Z,99.90
2018-09-13T23:11:30.243Z,99.90
2018-09-13T23:14:00.810Z,99.90
2018-09-13T23:16:30.840Z,99.90
2018-09-13T23:19:00.924Z,99.90
2018-09-13T23:21:30.932Z,99.90
2018-09-13T23:24:00.964Z,99.90
2018-09-13T23:26:31.281Z,99.90
2018-09-13T23:29:01.378Z,99.90
2018-09-13T23:31:31.409Z,99.90
2018-09-13T23:34:01.422Z,99.90
2018-09-13T23:36:31.411Z,99.90
2018-09-13T23:39:01.463Z,99.90
2018-09-13T23:41:31.476Z,99.90
2018-09-13T23:44:01.987Z,99.90
2018-09-13T23:46:32.322Z,99.90
2018-09-13T23:49:05.454Z,99.90
2018-09-13T23:51:35.403Z,99.90
2018-09-13T23:54:05.378Z,99.90
2018-09-13T23:56:35.341Z,99.90
2018-09-13T23:59:05.386Z,99.90
